Time;durP1;ratioP1;P1;durP2;ratioP2;P2;SDS_P1;SDS_P2;PMS_P1;PMS_P2;Temp;Humidity;BMP_temperature;BMP_pressure;BME280_temperature;BME280_humidity;BME280_pressure;Samples;Min_cycle;Max_cycle;Signal;HPM_P1;HPM_P2
2022/03/04 00:02:13;;;;;;;;;;;;;;;29.31;55.06;101049.31;4976294;28;69389;-37
2022/03/04 00:04:42;;;;;;;;;;;;;;;29.36;54.71;101046.84;4978476;28;66672;-36
2022/03/04 00:07:13;;;;;;;;;;;;;;;29.40;54.67;101043.53;4977998;28;70778;-37
2022/03/04 00:09:42;;;;;;;;;;;;;;;29.42;54.98;101051.44;4992276;28;66152;-36
2022/03/04 00:12:12;;;;;;;;;;;;;;;29.47;55.81;101056.22;4998142;27;70078;-36
2022/03/04 00:14:42;;;;;;;;;;;;;;;29.51;55.69;101054.78;4997734;27;65588;-37
2022/03/04 00:17:12;;;;;;;;;;;;;;;29.55;56.24;101053.31;4979836;28;70692;-36
2022/03/04 00:19:42;;;;;;;;;;;;;;;29.58;56.96;101059.13;4978402;28;66061;-38
2022/03/04 00:22:13;;;;;;;;;;;;;;;29.62;58.01;101056.88;4983401;28;70252;-37
2022/03/04 00:24:45;;;;;;;;;;;;;;;29.67;57.35;101065.22;4980401;28;66355;-37
2022/03/04 00:27:15;;;;;;;;;;;;;;;29.68;57.70;101072.28;4969363;28;70199;-36
2022/03/04 00:29:45;;;;;;;;;;;;;;;29.71;57.93;101071.84;4979339;27;66804;-40
2022/03/04 00:32:15;;;;;;;;;;;;;;;29.75;58.31;101072.25;4976824;28;69230;-37
2022/03/04 00:34:44;;;;;;;;;;;;;;;29.77;58.54;101075.59;4979082;28;66941;-37
2022/03/04 00:37:14;;;;;;;;;;;;;;;29.77;56.35;101081.00;4974395;28;70681;-36
2022/03/04 00:39:44;;;;;;;;;;;;;;;29.80;56.92;101077.88;4977188;28;66303;-35
2022/03/04 00:42:14;;;;;;;;;;;;;;;29.84;57.35;101079.97;4969265;28;71011;-37
2022/03/04 00:44:44;;;;;;;;;;;;;;;29.90;57.04;101086.41;4976058;28;67489;-37
2022/03/04 00:47:14;;;;;;;;;;;;;;;29.97;56.37;101086.41;4974500;28;69994;-37
2022/03/04 00:49:44;;;;;;;;;;;;;;;30.00;55.84;101091.41;4976044;28;66671;-37
2022/03/04 00:52:13;;;;;;;;;;;;;;;30.04;55.70;101089.94;4975336;28;70045;-37
2022/03/04 00:54:43;;;;;;;;;;;;;;;30.07;55.19;101086.81;4974919;28;66438;-36
2022/03/04 00:57:13;;;;;;;;;;;;;;;30.12;55.01;101095.16;4976889;28;70131;-36
2022/03/04 00:59:42;;;;;;;;;;;;;;;30.15;55.22;101093.91;4977286;28;66630;-36
2022/03/04 01:02:13;;;;;;;;;;;;;;;30.16;54.57;101096.38;4983992;27;70059;-37
2022/03/04 01:04:43;;;;;;;;;;;;;;;30.20;54.25;101094.06;4976804;28;66793;-35
2022/03/04 01:07:13;;;;;;;;;;;;;;;30.22;54.67;101105.56;4977340;28;70341;-37
2022/03/04 01:09:43;;;;;;;;;;;;;;;30.24;53.74;101103.47;4983066;27;66807;-36
2022/03/04 01:12:12;;;;;;;;;;;;;;;30.27;53.81;101103.88;4978582;28;70374;-36
2022/03/04 01:14:42;;;;;;;;;;;;;;;30.28;53.44;101108.28;4974642;28;66173;-35
2022/03/04 01:17:12;;;;;;;;;;;;;;;30.31;53.83;101114.28;4975234;28;70028;-36
2022/03/04 01:19:42;;;;;;;;;;;;;;;30.33;53.66;101115.72;4976710;28;67229;-37
2022/03/04 01:22:11;;;;;;;;;;;;;;;30.35;53.46;101126.38;4976129;28;69873;-37
2022/03/04 01:24:41;;;;;;;;;;;;;;;30.37;53.17;101129.66;4976679;28;66864;-37
2022/03/04 01:27:11;;;;;;;;;;;;;;;30.38;52.76;101115.94;4978876;28;69743;-37
2022/03/04 01:29:40;;;;;;;;;;;;;;;30.40;52.80;101121.16;4974896;28;66858;-37
2022/03/04 01:32:10;;;;;;;;;;;;;;;30.42;52.49;101128.03;4972327;28;70064;-37
2022/03/04 01:34:40;;;;;;;;;;;;;;;30.44;52.35;101116.97;4972486;28;66143;-36
2022/03/04 01:37:09;;;;;;;;;;;;;;;30.46;52.00;101125.72;4976229;28;70120;-37
2022/03/04 01:39:39;;;;;;;;;;;;;;;30.47;51.91;101124.66;4974011;27;66858;-37
2022/03/04 01:42:13;;;;;;;;;;;;;;;30.48;51.60;101115.50;4971637;28;70151;-36
2022/03/04 01:44:51;;;;;;;;;;;;;;;30.52;51.82;101126.75;4958107;28;65716;-37
2022/03/04 01:47:36;;;;;;;;;;;;;;;30.53;51.51;101126.50;4981557;28;69722;-37
2022/03/04 01:50:26;;;;;;;;;;;;;;;30.55;51.66;101127.13;4961188;28;65097;-37
2022/03/04 01:53:06;;;;;;;;;;;;;;;30.57;51.77;101130.47;4987693;27;69250;-37
2022/03/04 01:55:45;;;;;;;;;;;;;;;30.60;51.16;101135.47;4975440;28;66232;-35
2022/03/04 01:58:16;;;;;;;;;;;;;;;30.62;51.16;101130.66;4978208;28;69374;-36
2022/03/04 02:00:46;;;;;;;;;;;;;;;30.63;50.89;101129.63;4973770;28;66256;-36
2022/03/04 02:03:17;;;;;;;;;;;;;;;30.64;51.16;101131.28;4958726;28;69568;-37
2022/03/04 02:05:48;;;;;;;;;;;;;;;30.56;51.21;101115.25;4976574;28;67238;-36
2022/03/04 02:08:22;;;;;;;;;;;;;;;30.41;51.14;101087.63;4980138;28;70073;-36
2022/03/04 02:10:52;;;;;;;;;;;;;;;30.70;50.40;101135.84;4978388;28;66606;-40
2022/03/04 02:13:22;;;;;;;;;;;;;;;30.72;50.29;101139.16;4979271;28;70518;-37
2022/03/04 02:15:52;;;;;;;;;;;;;;;30.73;50.15;101135.44;4978540;27;66037;-37
2022/03/04 02:18:22;;;;;;;;;;;;;;;30.76;50.61;101141.44;4979423;28;70102;-38
2022/03/04 02:20:53;;;;;;;;;;;;;;;30.77;50.42;101137.72;4974626;28;66278;-37
2022/03/04 02:23:23;;;;;;;;;;;;;;;30.79;50.54;101138.34;4980132;28;69382;-37
2022/03/04 02:25:53;;;;;;;;;;;;;;;30.80;49.99;101132.72;4978956;28;67025;-37
2022/03/04 02:28:23;;;;;;;;;;;;;;;30.84;49.91;101133.09;4969769;28;70383;-37
2022/03/04 02:30:52;;;;;;;;;;;;;;;30.86;49.91;101133.75;4974167;28;66453;-36
2022/03/04 02:33:22;;;;;;;;;;;;;;;30.88;50.48;101132.47;4972052;28;70105;-36
2022/03/04 02:35:52;;;;;;;;;;;;;;;30.90;49.80;101126.88;4975422;28;66863;-36
2022/03/04 02:38:23;;;;;;;;;;;;;;;30.92;49.89;101128.31;4973027;28;70358;-37
2022/03/04 02:40:52;;;;;;;;;;;;;;;30.93;49.99;101129.97;4976150;28;66672;-37
2022/03/04 02:43:22;;;;;;;;;;;;;;;30.96;49.55;101117.88;4979420;28;69300;-37
2022/03/04 02:45:52;;;;;;;;;;;;;;;30.98;49.36;101113.06;4979535;28;66691;-37
2022/03/04 02:48:22;;;;;;;;;;;;;;;30.99;50.02;101112.03;4979674;28;70734;-37
2022/03/04 02:50:52;;;;;;;;;;;;;;;31.02;49.83;101117.00;4978701;28;67291;-37
2022/03/04 02:53:22;;;;;;;;;;;;;;;31.04;50.03;101114.09;4983465;28;69893;-37
2022/03/04 02:55:52;;;;;;;;;;;;;;;31.05;49.82;101111.16;4980403;28;66155;-37
2022/03/04 02:58:22;;;;;;;;;;;;;;;31.08;49.64;101116.13;4978830;28;69365;-37
2022/03/04 03:00:51;;;;;;;;;;;;;;;31.10;49.75;101111.34;4976442;28;65529;-37
2022/03/04 03:03:22;;;;;;;;;;;;;;;31.12;49.64;101111.09;4978187;28;70263;-37
2022/03/04 03:05:52;;;;;;;;;;;;;;;31.15;49.14;101116.13;4978977;28;66251;-36
2022/03/04 03:08:22;;;;;;;;;;;;;;;31.16;48.92;101113.16;4976840;28;70710;-36
2022/03/04 03:10:52;;;;;;;;;;;;;;;31.20;49.24;101101.91;4975711;28;67051;-37
2022/03/04 03:13:22;;;;;;;;;;;;;;;31.22;49.01;101108.75;4977721;28;69506;-37
2022/03/04 03:15:51;;;;;;;;;;;;;;;31.25;49.34;101107.50;4976419;28;66740;-36
2022/03/04 03:18:21;;;;;;;;;;;;;;;31.26;49.05;101106.44;4978533;28;69886;-37
2022/03/04 03:20:51;;;;;;;;;;;;;;;31.28;49.33;101107.06;4978033;28;66855;-37
2022/03/04 03:23:20;;;;;;;;;;;;;;;31.30;49.06;101103.09;4977735;28;69149;-37
2022/03/04 03:25:50;;;;;;;;;;;;;;;31.32;49.16;101103.72;4978182;28;66838;-36
2022/03/04 03:28:20;;;;;;;;;;;;;;;31.35;48.91;101094.31;4974862;28;68407;-38
2022/03/04 03:30:50;;;;;;;;;;;;;;;31.36;49.31;101098.72;4977199;28;66258;-36
2022/03/04 03:33:20;;;;;;;;;;;;;;;31.39;48.83;101090.97;4975332;28;70246;-36
2022/03/04 03:35:54;;;;;;;;;;;;;;;31.42;48.60;101100.53;4976637;28;66260;-37
2022/03/04 03:38:24;;;;;;;;;;;;;;;31.43;48.80;101088.66;4975685;28;68973;-37
2022/03/04 03:40:54;;;;;;;;;;;;;;;31.45;48.69;101083.00;4976961;28;67178;-37
2022/03/04 03:43:40;;;;;;;;;;;;;;;31.47;48.48;101084.44;4976129;28;69810;-36
2022/03/04 03:46:10;;;;;;;;;;;;;;;31.49;48.74;101079.66;4978190;28;65579;-36
2022/03/04 03:48:41;;;;;;;;;;;;;;;31.52;48.37;101078.38;4977656;28;70516;-36
2022/03/04 03:51:10;;;;;;;;;;;;;;;31.54;48.40;101071.69;4976344;28;66738;-36
2022/03/04 03:53:41;;;;;;;;;;;;;;;31.55;48.45;101070.63;4976918;28;70055;-36
2022/03/04 03:56:11;;;;;;;;;;;;;;;31.57;48.73;101068.53;4976578;28;66891;-36
2022/03/04 03:58:40;;;;;;;;;;;;;;;31.58;48.50;101062.03;4977230;27;70529;-36
2022/03/04 04:01:10;;;;;;;;;;;;;;;31.60;48.60;101057.25;4976387;28;67070;-37
2022/03/04 04:03:39;;;;;;;;;;;;;;;31.61;48.61;101042.63;4976005;28;70383;-37
2022/03/04 04:06:09;;;;;;;;;;;;;;;31.49;48.71;101028.13;4975660;28;66622;-37
2022/03/04 04:08:39;;;;;;;;;;;;;;;31.65;48.86;101039.47;4977682;28;68915;-37
2022/03/04 04:11:09;;;;;;;;;;;;;;;31.66;48.52;101033.81;4977469;27;66935;-40
2022/03/04 04:13:39;;;;;;;;;;;;;;;31.67;48.50;101026.50;4961108;28;68657;-39
2022/03/04 04:16:09;;;;;;;;;;;;;;;31.70;48.17;101028.78;4977182;28;65777;-38
2022/03/04 04:18:39;;;;;;;;;;;;;;;31.72;48.29;101015.84;4977967;28;70472;-37
2022/03/04 04:21:09;;;;;;;;;;;;;;;31.74;48.50;101011.03;4976240;28;65767;-36
2022/03/04 04:23:38;;;;;;;;;;;;;;;31.75;48.16;101013.50;4976782;28;70311;-37
2022/03/04 04:26:08;;;;;;;;;;;;;;;31.76;48.47;100998.91;4973190;28;66763;-38
2022/03/04 04:28:38;;;;;;;;;;;;;;;31.78;48.39;100996.78;4976850;28;68922;-36
2022/03/04 04:31:08;;;;;;;;;;;;;;;31.81;48.61;100988.19;4976614;28;67007;-37
2022/03/04 04:33:38;;;;;;;;;;;;;;;31.83;48.48;100991.50;4978312;28;69313;-37
2022/03/04 04:36:08;;;;;;;;;;;;;;;31.86;48.22;100981.28;4976775;28;65401;-38
2022/03/04 04:38:38;;;;;;;;;;;;;;;31.86;47.99;100975.84;4976499;28;69896;-38
2022/03/04 04:41:08;;;;;;;;;;;;;;;31.87;48.30;100967.47;4977565;28;66615;-37
2022/03/04 04:43:38;;;;;;;;;;;;;;;31.88;48.50;100969.16;4975795;28;70219;-37
2022/03/04 04:46:08;;;;;;;;;;;;;;;31.89;48.23;100957.22;4979505;28;66157;-37
2022/03/04 04:48:38;;;;;;;;;;;;;;;31.91;48.46;100946.16;4978199;28;70368;-38
2022/03/04 04:51:08;;;;;;;;;;;;;;;31.92;48.04;100937.81;4978095;28;66059;-37
2022/03/04 04:53:38;;;;;;;;;;;;;;;31.93;47.98;100936.78;4978287;28;70523;-37
2022/03/04 04:56:08;;;;;;;;;;;;;;;31.94;48.59;100929.47;4977171;28;66629;-37
2022/03/04 04:58:38;;;;;;;;;;;;;;;31.94;48.21;100919.44;4975277;28;70441;-37
2022/03/04 05:01:07;;;;;;;;;;;;;;;31.96;48.34;100922.75;4974617;28;65339;-37
2022/03/04 05:03:37;;;;;;;;;;;;;;;31.97;47.98;100913.56;4978812;28;69334;-37
2022/03/04 05:06:07;;;;;;;;;;;;;;;31.98;48.33;100915.22;4977440;28;66595;-36
2022/03/04 05:08:37;;;;;;;;;;;;;;;31.99;48.36;100910.63;4975919;28;70109;-39
2022/03/04 05:11:08;;;;;;;;;;;;;;;32.00;48.38;100902.25;4976824;28;67103;-37
2022/03/04 05:13:38;;;;;;;;;;;;;;;32.01;48.32;100906.63;4975508;28;71121;-36
2022/03/04 05:16:07;;;;;;;;;;;;;;;32.03;48.49;100893.66;4977260;28;66584;-36
2022/03/04 05:18:41;;;;;;;;;;;;;;;32.03;48.05;100890.94;4976146;28;69880;-36
2022/03/04 05:21:11;;;;;;;;;;;;;;;32.07;48.39;100885.03;4976347;28;65308;-35
2022/03/04 05:23:59;;;;;;;;;;;;;;;32.09;48.14;100874.81;4977121;28;69741;-37
2022/03/04 05:26:33;;;;;;;;;;;;;;;32.11;48.28;100869.97;4969779;28;65710;-36
2022/03/04 05:29:04;;;;;;;;;;;;;;;32.14;48.08;100862.19;4979647;28;70377;-38
2022/03/04 05:31:33;;;;;;;;;;;;;;;32.16;48.57;100856.56;4980118;28;65891;-37
2022/03/04 05:34:03;;;;;;;;;;;;;;;32.18;48.09;100859.84;4977345;28;68858;-37
2022/03/04 05:36:34;;;;;;;;;;;;;;;32.21;48.28;100856.69;4968521;28;64545;-37
2022/03/04 05:39:04;;;;;;;;;;;;;;;32.22;47.79;100845.59;4973636;28;69312;-36
2022/03/04 05:41:34;;;;;;;;;;;;;;;32.24;48.21;100837.25;4964880;28;67154;-36
2022/03/04 05:44:04;;;;;;;;;;;;;;;32.27;48.31;100834.88;4978346;28;71023;-36
2022/03/04 05:46:34;;;;;;;;;;;;;;;32.30;48.46;100824.63;4973716;28;66915;-36
2022/03/04 05:49:04;;;;;;;;;;;;;;;32.32;47.96;100815.19;4979355;28;70491;-37
2022/03/04 05:51:34;;;;;;;;;;;;;;;32.34;47.86;100815.78;4975271;28;66936;-37
2022/03/04 05:54:04;;;;;;;;;;;;;;;32.37;47.95;100803.63;4978670;28;69985;-38
2022/03/04 05:56:33;;;;;;;;;;;;;;;32.39;48.06;100802.34;4977798;28;66671;-35
2022/03/04 05:59:03;;;;;;;;;;;;;;;32.41;48.23;100794.78;4979621;28;70876;-36
2022/03/04 06:01:33;;;;;;;;;;;;;;;32.43;47.98;100791.81;4978408;28;65740;-36
2022/03/04 06:04:03;;;;;;;;;;;;;;;32.45;47.91;100782.38;4977358;28;69170;-37
2022/03/04 06:06:33;;;;;;;;;;;;;;;32.48;47.73;100783.84;4979440;28;66909;-37
2022/03/04 06:09:03;;;;;;;;;;;;;;;32.50;47.63;100768.16;4978003;28;69401;-37
2022/03/04 06:11:33;;;;;;;;;;;;;;;32.53;47.84;100772.28;4974141;28;66016;-36
2022/03/04 06:14:03;;;;;;;;;;;;;;;32.56;47.75;100771.81;4979653;28;70700;-36
2022/03/04 06:16:33;;;;;;;;;;;;;;;32.57;48.04;100765.31;4978620;28;66157;-36
2022/03/04 06:19:02;;;;;;;;;;;;;;;32.58;47.75;100756.13;4978113;28;70354;-37
2022/03/04 06:21:32;;;;;;;;;;;;;;;32.60;47.90;100748.59;4987424;27;65684;-37
2022/03/04 06:24:02;;;;;;;;;;;;;;;32.59;47.63;100750.44;4958365;28;69513;-36
2022/03/04 06:26:32;;;;;;;;;;;;;;;32.61;47.86;100740.19;4979067;28;65508;-36
2022/03/04 06:29:02;;;;;;;;;;;;;;;32.63;47.63;100743.50;4978149;28;70529;-36
2022/03/04 06:31:32;;;;;;;;;;;;;;;32.65;47.76;100732.38;4970677;28;65766;-37
2022/03/04 06:34:02;;;;;;;;;;;;;;;32.67;47.77;100722.13;4982158;27;70629;-36
2022/03/04 06:36:32;;;;;;;;;;;;;;;32.70;47.83;100716.22;4980676;27;66362;-37
2022/03/04 06:39:01;;;;;;;;;;;;;;;32.72;47.66;100711.38;4980246;28;69889;-36
2022/03/04 06:41:31;;;;;;;;;;;;;;;32.76;47.58;100704.38;4970198;28;66632;-36
2022/03/04 06:44:01;;;;;;;;;;;;;;;32.78;47.75;100709.59;4979718;28;69738;-36
2022/03/04 06:46:31;;;;;;;;;;;;;;;32.80;47.32;100689.28;4977531;28;65279;-37
2022/03/04 06:49:01;;;;;;;;;;;;;;;32.83;47.73;100680.66;4978155;28;70653;-37
2022/03/04 06:51:30;;;;;;;;;;;;;;;32.86;47.68;100682.91;4981531;28;66175;-37
2022/03/04 06:54:00;;;;;;;;;;;;;;;32.88;47.61;100669.91;4971234;28;69931;-37
2022/03/04 06:56:30;;;;;;;;;;;;;;;32.90;47.29;100667.78;4980969;27;66108;-37
2022/03/04 06:59:00;;;;;;;;;;;;;;;32.91;47.46;100650.41;4977710;27;69790;-37
2022/03/04 07:01:29;;;;;;;;;;;;;;;32.94;47.63;100658.06;4980507;28;66146;-36
2022/03/04 07:03:59;;;;;;;;;;;;;;;32.96;47.48;100648.84;4979327;27;70554;-37
2022/03/04 07:06:29;;;;;;;;;;;;;;;32.97;47.74;100645.91;4980610;28;65641;-37
2022/03/04 07:08:59;;;;;;;;;;;;;;;32.99;47.44;100640.22;4968854;27;69985;-38
2022/03/04 07:11:30;;;;;;;;;;;;;;;33.03;47.45;100638.72;4980317;28;66625;-37
2022/03/04 07:13:59;;;;;;;;;;;;;;;33.04;47.54;100632.19;4980238;28;70060;-36
2022/03/04 07:16:30;;;;;;;;;;;;;;;33.05;47.15;100625.72;4980517;28;65800;-37
2022/03/04 07:18:59;;;;;;;;;;;;;;;33.07;47.50;100618.13;4978168;28;70078;-36
2022/03/04 07:21:29;;;;;;;;;;;;;;;33.08;47.22;100626.06;4978752;28;66647;-36
2022/03/04 07:23:59;;;;;;;;;;;;;;;33.08;47.38;100614.38;4960448;28;70167;-37
2022/03/04 07:26:29;;;;;;;;;;;;;;;33.10;47.14;100609.50;4983315;27;67228;-37
2022/03/04 07:29:01;;;;;;;;;;;;;;;33.12;47.26;100599.22;4977293;28;70701;-37
2022/03/04 07:31:31;;;;;;;;;;;;;;;33.13;47.08;100595.44;4978141;28;65708;-37
2022/03/04 07:34:01;;;;;;;;;;;;;;;33.16;47.24;100594.94;4978904;28;70689;-37
2022/03/04 07:36:33;;;;;;;;;;;;;;;33.18;47.03;100591.97;4980314;27;66665;-38
2022/03/04 07:39:03;;;;;;;;;;;;;;;33.19;47.22;100586.31;4975962;28;70063;-37
2022/03/04 07:41:33;;;;;;;;;;;;;;;33.19;47.19;100578.16;4979076;28;65496;-37
2022/03/04 07:44:03;;;;;;;;;;;;;;;33.20;47.09;100590.66;4977111;28;70792;-38
2022/03/04 07:46:34;;;;;;;;;;;;;;;33.20;47.39;100590.66;4975378;28;65788;-38
2022/03/04 07:49:04;;;;;;;;;;;;;;;33.21;47.21;100586.91;4978455;28;69975;-36
2022/03/04 07:51:34;;;;;;;;;;;;;;;33.22;47.10;100580.38;4972916;28;66646;-37
2022/03/04 07:54:04;;;;;;;;;;;;;;;33.22;47.21;100580.38;4977302;28;71100;-36
2022/03/04 07:56:34;;;;;;;;;;;;;;;33.16;47.22;100567.78;4990975;28;66900;-36
2022/03/04 07:59:04;;;;;;;;;;;;;;;33.24;47.20;100575.53;4975673;28;69794;-36
2022/03/04 08:01:34;;;;;;;;;;;;;;;33.24;47.18;100575.53;4977459;28;65988;-36
2022/03/04 08:04:05;;;;;;;;;;;;;;;33.25;47.06;100577.19;4977685;28;70579;-37
2022/03/04 08:06:35;;;;;;;;;;;;;;;33.26;47.10;100573.38;4978501;28;65570;-36
2022/03/04 08:09:05;;;;;;;;;;;;;;;33.26;47.41;100572.56;4977489;28;69756;-36
2022/03/04 08:11:36;;;;;;;;;;;;;;;33.27;47.18;100568.78;4976909;28;66289;-36
2022/03/04 08:14:05;;;;;;;;;;;;;;;33.26;47.23;100576.09;4978602;28;70359;-36
2022/03/04 08:16:35;;;;;;;;;;;;;;;33.27;47.21;100577.75;4971862;28;65320;-35
2022/03/04 08:19:06;;;;;;;;;;;;;;;33.26;47.13;100567.94;4979641;28;69885;-36
2022/03/04 08:21:35;;;;;;;;;;;;;;;33.28;47.15;100560.38;4985494;28;65041;-36
2022/03/04 08:24:06;;;;;;;;;;;;;;;33.28;47.29;100554.94;4977495;28;69431;-36
2022/03/04 08:26:38;;;;;;;;;;;;;;;33.28;47.30;100557.66;4977234;28;66365;-37
2022/03/04 08:29:09;;;;;;;;;;;;;;;33.29;47.32;100551.16;4976820;28;69718;-37
2022/03/04 08:31:38;;;;;;;;;;;;;;;33.29;47.47;100556.59;4975784;28;66537;-37
2022/03/04 08:34:08;;;;;;;;;;;;;;;33.29;47.39;100555.75;4977600;28;70796;-38
2022/03/04 08:36:38;;;;;;;;;;;;;;;33.28;47.51;100560.38;4978077;28;66161;-37
2022/03/04 08:39:07;;;;;;;;;;;;;;;33.29;47.38;100564.75;4977036;28;69193;-37
2022/03/04 08:41:38;;;;;;;;;;;;;;;33.30;47.57;100568.28;4977420;28;66229;-36
2022/03/04 08:44:08;;;;;;;;;;;;;;;33.29;47.38;100562.03;4979540;28;70756;-37
2022/03/04 08:46:38;;;;;;;;;;;;;;;33.30;47.73;100563.69;4976542;28;65989;-38
2022/03/04 08:49:09;;;;;;;;;;;;;;;33.31;47.54;100570.75;4977617;28;69848;-37
2022/03/04 08:51:39;;;;;;;;;;;;;;;33.31;47.51;100568.03;4979545;28;65428;-38
2022/03/04 08:54:08;;;;;;;;;;;;;;;33.32;47.43;100575.16;4976194;28;69145;-37
2022/03/04 08:56:38;;;;;;;;;;;;;;;33.31;47.67;100573.47;4977612;27;66323;-37
2022/03/04 08:59:08;;;;;;;;;;;;;;;33.32;47.71;100572.44;4977536;28;70141;-37
2022/03/04 09:01:37;;;;;;;;;;;;;;;33.31;47.66;100576.19;4977107;28;65267;-37
2022/03/04 09:04:07;;;;;;;;;;;;;;;33.33;47.82;100578.69;4976630;28;68864;-38
2022/03/04 09:06:37;;;;;;;;;;;;;;;33.32;47.82;100569.72;4978911;28;66939;-37
2022/03/04 09:09:07;;;;;;;;;;;;;;;33.32;47.84;100569.72;4971885;28;70743;-38
2022/03/04 09:11:38;;;;;;;;;;;;;;;33.33;48.03;100560.47;4978490;28;65375;-37
2022/03/04 09:14:08;;;;;;;;;;;;;;;33.33;48.00;100563.19;4976965;28;70291;-37
2022/03/04 09:16:39;;;;;;;;;;;;;;;33.33;47.97;100574.06;4977453;28;65730;-37
2022/03/04 09:19:08;;;;;;;;;;;;;;;33.35;47.99;100571.94;4974899;28;69984;-37
2022/03/04 09:21:38;;;;;;;;;;;;;;;33.35;48.22;100561.06;4977235;28;66289;-37
2022/03/04 09:24:08;;;;;;;;;;;;;;;33.36;48.17;100562.69;4975307;28;70594;-37
2022/03/04 09:26:38;;;;;;;;;;;;;;;33.37;48.28;100564.34;4978402;28;65939;-37
2022/03/04 09:29:08;;;;;;;;;;;;;;;33.38;48.03;100570.63;4973567;28;70540;-37
2022/03/04 09:31:38;;;;;;;;;;;;;;;33.38;48.09;100571.44;4975144;28;66392;-36
2022/03/04 09:34:07;;;;;;;;;;;;;;;33.38;48.29;100582.31;4972309;28;69794;-37
2022/03/04 09:36:38;;;;;;;;;;;;;;;33.40;48.25;100589.38;4977396;28;67331;-37
2022/03/04 09:39:09;;;;;;;;;;;;;;;33.40;48.34;100590.22;4974120;28;70547;-37
2022/03/04 09:41:40;;;;;;;;;;;;;;;33.40;48.39;100594.81;4971695;28;66092;-37
2022/03/04 09:44:10;;;;;;;;;;;;;;;33.41;48.42;100591.06;4976885;28;69042;-37
2022/03/04 09:46:42;;;;;;;;;;;;;;;33.41;48.31;100588.34;4976489;28;66441;-37
2022/03/04 09:49:15;;;;;;;;;;;;;;;33.38;48.44;100598.63;4969971;28;70730;-37
2022/03/04 09:51:45;;;;;;;;;;;;;;;33.39;48.52;100588.56;4975992;28;65346;-36
2022/03/04 09:54:15;;;;;;;;;;;;;;;33.40;48.37;100594.81;4976099;28;70461;-38
2022/03/04 09:56:45;;;;;;;;;;;;;;;33.40;48.27;100597.53;4976403;28;66880;-38
2022/03/04 09:59:15;;;;;;;;;;;;;;;33.40;48.57;100600.28;4969828;28;69434;-37
2022/03/04 10:01:46;;;;;;;;;;;;;;;33.40;48.25;100597.53;4976109;28;66144;-37
2022/03/04 10:04:17;;;;;;;;;;;;;;;33.38;48.24;100593.19;4973332;28;70103;-37
2022/03/04 10:06:49;;;;;;;;;;;;;;;33.36;48.16;100589.88;4973050;28;66369;-36
2022/03/04 10:09:34;;;;;;;;;;;;;;;33.36;48.46;100587.16;4975314;28;69929;-36
2022/03/04 10:12:05;;;;;;;;;;;;;;;33.37;48.40;100591.53;4989531;28;66700;-36
2022/03/04 10:14:35;;;;;;;;;;;;;;;33.37;48.38;100591.53;4961857;28;69865;-37
2022/03/04 10:17:05;;;;;;;;;;;;;;;33.38;48.24;100595.91;4977985;27;66111;-37
2022/03/04 10:19:37;;;;;;;;;;;;;;;33.38;48.33;100597.81;4975596;28;70510;-38
2022/03/04 10:22:07;;;;;;;;;;;;;;;33.37;48.39;100601.56;4974137;28;66785;-36
2022/03/04 10:24:38;;;;;;;;;;;;;;;33.36;48.25;100605.38;4977597;28;70175;-36
2022/03/04 10:27:09;;;;;;;;;;;;;;;33.33;48.46;100606.69;4975641;28;66387;-38
2022/03/04 10:29:49;;;;;;;;;;;;;;;33.35;49.07;100609.19;4985492;28;62574;-37
2022/03/04 10:32:20;;;;;;;;;;;;;;;33.37;49.88;100616.00;4979083;28;66853;-37
2022/03/04 10:34:56;;;;;;;;;;;;;;;33.36;50.04;100606.19;4976011;28;69429;-37
2022/03/04 10:37:41;;;;;;;;;;;;;;;33.37;50.50;100618.72;4986830;28;66396;-38
2022/03/04 10:40:14;;;;;;;;;;;;;;;33.38;50.64;100619.56;4974477;28;69235;-38
2022/03/04 10:43:02;;;;;;;;;;;;;;;33.37;50.57;100612.44;4976633;28;65375;-36
2022/03/04 10:45:37;;;;;;;;;;;;;;;33.38;50.84;100612.22;4977960;28;69859;-37
2022/03/04 10:48:10;;;;;;;;;;;;;;;33.35;51.25;100614.63;4970714;28;66476;-37
2022/03/04 10:50:40;;;;;;;;;;;;;;;33.36;51.04;100611.63;4976752;28;70495;-37
2022/03/04 10:53:11;;;;;;;;;;;;;;;33.35;51.45;100615.44;4976550;28;65654;-38
2022/03/04 10:55:45;;;;;;;;;;;;;;;33.36;51.35;100621.69;4977956;28;69929;-37
2022/03/04 10:58:18;;;;;;;;;;;;;;;33.36;51.60;100617.06;4974634;28;66332;-37
2022/03/04 11:00:49;;;;;;;;;;;;;;;33.35;51.60;100623.59;4976135;28;70162;-37
2022/03/04 11:03:20;;;;;;;;;;;;;;;33.33;52.09;100628.44;4977262;28;65588;-36
2022/03/04 11:05:52;;;;;;;;;;;;;;;33.34;52.16;100623.81;4979833;27;70044;-38
2022/03/04 11:08:22;;;;;;;;;;;;;;;33.32;52.17;100629.50;4982551;28;65333;-37
2022/03/04 11:10:54;;;;;;;;;;;;;;;33.31;52.17;100625.13;4985549;27;70403;-36
2022/03/04 11:13:24;;;;;;;;;;;;;;;33.33;52.32;100627.63;4957432;28;65934;-37
2022/03/04 11:15:54;;;;;;;;;;;;;;;33.29;51.72;100630.00;4979620;28;69848;-37
2022/03/04 11:18:24;;;;;;;;;;;;;;;33.29;51.36;100632.72;4966886;28;67030;-38
2022/03/04 11:20:56;;;;;;;;;;;;;;;33.27;51.60;100636.75;4975292;28;69207;-37
2022/03/04 11:23:30;;;;;;;;;;;;;;;33.25;51.64;100636.97;4975916;28;66514;-38
2022/03/04 11:26:29;;;;;;;;;;;;;;;33.24;51.61;100651.66;4975079;28;70025;-36
2022/03/04 11:29:01;;;;;;;;;;;;;;;33.20;51.68;100639.59;4952061;28;66546;-37
2022/03/04 11:31:31;;;;;;;;;;;;;;;33.19;52.07;100648.00;4976201;28;70293;-37
2022/03/04 11:34:02;;;;;;;;;;;;;;;33.15;51.90;100647.63;4973588;28;66892;-37
2022/03/04 11:36:34;;;;;;;;;;;;;;;33.14;51.62;100641.38;4977895;27;69930;-37
2022/03/04 11:39:05;;;;;;;;;;;;;;;33.11;51.47;100647.31;4975617;28;65739;-38
2022/03/04 11:41:38;;;;;;;;;;;;;;;33.11;51.04;100647.31;4974997;28;69255;-37
2022/03/04 11:44:08;;;;;;;;;;;;;;;33.10;50.65;100650.28;4976388;28;65429;-39
2022/03/04 11:46:47;;;;;;;;;;;;;;;33.04;50.39;100654.78;4975042;28;69427;-37
2022/03/04 11:49:26;;;;;;;;;;;;;;;33.04;50.27;100656.66;4976776;28;66999;-37
2022/03/04 11:52:12;;;;;;;;;;;;;;;33.00;50.42;100663.66;4976784;28;69908;-37
2022/03/04 11:54:42;;;;;;;;;;;;;;;32.99;50.89;100665.53;4976561;28;65949;-40
2022/03/04 11:57:15;;;;;;;;;;;;;;;32.98;51.18;100668.47;4980971;28;70460;-37
2022/03/04 12:00:10;;;;;;;;;;;;;;;32.98;51.34;100685.59;4976716;28;66836;-42
2022/03/04 12:02:42;;;;;;;;;;;;;;;32.98;51.37;100690.19;4987870;28;69445;-37
2022/03/04 12:05:14;;;;;;;;;;;;;;;32.96;51.29;100697.75;4955832;28;65779;-38
2022/03/04 12:07:44;;;;;;;;;;;;;;;32.93;51.48;100699.91;4974780;28;70169;-39
2022/03/04 12:10:15;;;;;;;;;;;;;;;32.92;51.31;100698.22;4976376;27;66932;-38
2022/03/04 12:13:03;;;;;;;;;;;;;;;32.95;51.47;100713.22;4976094;28;73298;-38
2022/03/04 12:15:40;;;;;;;;;;;;;;;32.93;51.80;100716.22;4975204;28;65402;-37
2022/03/04 12:18:28;;;;;;;;;;;;;;;32.92;53.23;100719.97;4977342;28;70607;-37
2022/03/04 12:20:59;;;;;;;;;;;;;;;32.94;53.69;100717.84;4975547;28;66609;-40
2022/03/04 12:23:30;;;;;;;;;;;;;;;32.98;53.77;100722.81;4973423;28;71093;-39
2022/03/04 12:26:00;;;;;;;;;;;;;;;32.98;53.64;100728.25;4975585;28;65268;-38
2022/03/04 12:28:34;;;;;;;;;;;;;;;32.90;53.70;100738.41;4975200;28;70126;-38
2022/03/04 12:31:04;;;;;;;;;;;;;;;32.69;54.40;100736.28;4973560;28;66918;-38
2022/03/04 12:33:36;;;;;;;;;;;;;;;32.60;54.41;100748.59;4963341;28;70209;-37
2022/03/04 12:36:13;;;;;;;;;;;;;;;32.51;54.88;100750.78;4972852;28;65382;-38
2022/03/04 12:38:42;;;;;;;;;;;;;;;32.39;55.34;100753.47;4977490;28;70198;-39
2022/03/04 12:41:16;;;;;;;;;;;;;;;32.33;55.42;100759.84;4972892;28;66440;-38
2022/03/04 12:43:48;;;;;;;;;;;;;;;32.17;53.17;100768.66;4976372;28;69055;-40
2022/03/04 12:46:19;;;;;;;;;;;;;;;31.99;52.12;100774.97;4972699;27;65444;-39
2022/03/04 12:48:52;;;;;;;;;;;;;;;31.82;49.88;100781.00;4955904;28;69749;-38
2022/03/04 12:51:25;;;;;;;;;;;;;;;31.65;49.31;100784.56;4975567;28;66306;-39
2022/03/04 12:53:57;;;;;;;;;;;;;;;31.52;48.35;100791.81;4984121;27;71068;-39
2022/03/04 12:56:27;;;;;;;;;;;;;;;31.42;48.46;100796.09;4971526;28;65968;-39